createdAt,value
2022-11-20T00:00:46.553Z,93.7
2022-11-20T00:02:02.853Z,93.5
2022-11-20T00:03:19.127Z,93.5
2022-11-20T00:04:35.426Z,93.8
2022-11-20T00:05:50.749Z,94.1
2022-11-20T00:07:07.044Z,94
2022-11-20T00:08:23.328Z,94
2022-11-20T00:09:39.624Z,94.1
2022-11-20T00:10:55.926Z,94.4
2022-11-20T00:12:12.209Z,94.6
2022-11-20T00:13:28.508Z,95
2022-11-20T00:14:44.804Z,96.2
2022-11-20T00:16:01.105Z,97
2022-11-20T00:17:17.405Z,97.2
2022-11-20T00:18:33.696Z,96.7
2022-11-20T00:19:49.971Z,96.4
2022-11-20T00:21:06.277Z,96.5
2022-11-20T00:22:21.581Z,97.3
2022-11-20T00:23:37.885Z,97.5
2022-11-20T00:24:54.176Z,97.4
2022-11-20T00:26:10.466Z,97.8
2022-11-20T00:27:26.754Z,98.3
2022-11-20T00:28:43.050Z,98.5
2022-11-20T00:29:59.351Z,98.5
2022-11-20T00:31:15.649Z,98.7
2022-11-20T00:32:31.955Z,98.9
2022-11-20T00:33:48.231Z,99.3
2022-11-20T00:35:04.522Z,99.6
2022-11-20T00:36:20.820Z,99.8
2022-11-20T00:37:37.121Z,99.7
2022-11-20T00:38:52.439Z,99.6
2022-11-20T00:40:08.725Z,99.6
2022-11-20T00:41:25.020Z,99.5
2022-11-20T00:42:41.305Z,99.3
2022-11-20T00:43:57.606Z,98.9
2022-11-20T00:45:13.897Z,98.4
2022-11-20T00:46:30.194Z,97.6
2022-11-20T00:47:46.493Z,96.8
2022-11-20T00:49:02.782Z,96.3
2022-11-20T00:50:19.089Z,96.2
2022-11-20T00:51:35.376Z,96.5
2022-11-20T00:52:51.663Z,97
2022-11-20T00:54:07.961Z,97.3
2022-11-20T00:55:23.270Z,97.6
2022-11-20T00:56:39.566Z,97.9
2022-11-20T00:57:55.860Z,97.8
2022-11-20T00:59:12.159Z,97.3
2022-11-20T01:00:28.462Z,96.6
2022-11-20T01:01:44.750Z,95.3
2022-11-20T01:03:01.048Z,94.1
2022-11-20T01:04:17.338Z,93.3
2022-11-20T01:05:33.629Z,92.5
2022-11-20T01:06:49.917Z,92
2022-11-20T01:08:06.223Z,91.6
2022-11-20T01:09:22.507Z,91.6
2022-11-20T01:10:38.812Z,92.8
2022-11-20T01:11:54.117Z,95
2022-11-20T01:13:10.407Z,96.6
2022-11-20T01:14:26.707Z,97.4
2022-11-20T01:15:42.999Z,97.9
2022-11-20T01:16:59.297Z,98.2
2022-11-20T01:18:15.585Z,97.9
2022-11-20T01:19:31.892Z,97.7
2022-11-20T01:20:48.177Z,97.3
2022-11-20T01:22:04.468Z,97
2022-11-20T01:23:20.768Z,96.9
2022-11-20T01:24:37.070Z,96.7
2022-11-20T01:25:53.356Z,96.5
2022-11-20T01:27:09.657Z,96.3
2022-11-20T01:28:24.958Z,96.2
2022-11-20T01:29:41.253Z,95.9
2022-11-20T01:30:57.562Z,95.4
2022-11-20T01:32:13.844Z,94.7
2022-11-20T01:33:30.135Z,94.4
2022-11-20T01:34:46.436Z,95.2
2022-11-20T01:36:02.733Z,96
2022-11-20T01:37:19.039Z,96.5
2022-11-20T01:38:35.328Z,96.6
2022-11-20T01:39:51.615Z,96.3
2022-11-20T01:41:07.925Z,96.3
2022-11-20T01:42:24.205Z,96.6
2022-11-20T01:43:40.497Z,97
2022-11-20T01:44:55.814Z,97.3
2022-11-20T01:46:12.101Z,97.4
2022-11-20T01:47:28.398Z,97.4
2022-11-20T01:48:44.695Z,97.1
2022-11-20T01:50:01.002Z,96.7
2022-11-20T01:51:17.281Z,96.7
2022-11-20T01:52:33.579Z,97.3
2022-11-20T01:53:49.875Z,97.8
2022-11-20T01:55:06.169Z,98.2
2022-11-20T01:56:22.000Z,98.5
2022-11-20T01:57:38.765Z,98.8
2022-11-20T01:58:55.058Z,99
2022-11-20T02:00:11.343Z,99.2
2022-11-20T02:01:26.655Z,99.4
2022-11-20T02:02:42.960Z,99.5
2022-11-20T02:03:59.247Z,99.4
2022-11-20T02:05:15.542Z,99.6
2022-11-20T02:06:31.834Z,99.9
2022-11-20T02:07:48.128Z,99.9
2022-11-20T02:09:04.425Z,99.9
2022-11-20T02:10:20.724Z,99.8
2022-11-20T02:11:37.018Z,99.8
2022-11-20T02:12:53.305Z,99.6
2022-11-20T02:14:09.605Z,99.6
2022-11-20T02:15:25.904Z,99.4
2022-11-20T02:16:42.194Z,99.4
2022-11-20T02:17:57.514Z,99.4
2022-11-20T02:19:13.790Z,99.4
2022-11-20T02:20:30.094Z,99
2022-11-20T02:21:46.385Z,98.8
2022-11-20T02:23:02.692Z,98.6
2022-11-20T02:24:18.974Z,98.6
2022-11-20T02:25:35.267Z,98.6
2022-11-20T02:26:51.568Z,98.6
2022-11-20T02:28:07.857Z,98.7
2022-11-20T02:29:24.148Z,98.7
2022-11-20T02:30:40.453Z,98.5
2022-11-20T02:31:56.736Z,98.1
2022-11-20T02:33:13.051Z,98.2
2022-11-20T02:34:28.349Z,98.6
2022-11-20T02:35:44.637Z,98.5
2022-11-20T02:37:00.939Z,98.7
2022-11-20T02:38:17.233Z,98.7
2022-11-20T02:39:33.524Z,98.5
2022-11-20T02:40:49.819Z,98.3
2022-11-20T02:42:06.124Z,98.2
2022-11-20T02:43:22.414Z,98.3
2022-11-20T02:44:38.703Z,98.7
2022-11-20T02:45:55.010Z,99
2022-11-20T02:47:11.300Z,99.1
2022-11-20T02:48:27.588Z,99.2
2022-11-20T02:49:43.884Z,99.1
2022-11-20T02:50:59.200Z,99.1
2022-11-20T02:52:15.482Z,99.3
2022-11-20T02:53:31.784Z,99.4
2022-11-20T02:54:48.089Z,99.5
2022-11-20T02:56:04.366Z,99.3
2022-11-20T02:57:20.671Z,99.3
2022-11-20T02:58:36.968Z,99.4
2022-11-20T02:59:53.254Z,99.3
2022-11-20T03:01:09.546Z,99.3
2022-11-20T03:02:25.843Z,99.3
2022-11-20T03:03:42.139Z,99.3
2022-11-20T03:04:58.434Z,99.3
2022-11-20T03:06:14.729Z,99.2
2022-11-20T03:07:30.044Z,99.2
2022-11-20T03:08:46.338Z,99.1
2022-11-20T03:10:02.638Z,99.1
2022-11-20T03:11:18.927Z,99.1
2022-11-20T03:12:35.218Z,99
2022-11-20T03:13:51.519Z,98.9
2022-11-20T03:15:07.806Z,98.8
2022-11-20T03:16:24.103Z,98.7
2022-11-20T03:17:40.407Z,98.7
2022-11-20T03:18:56.690Z,98.8
2022-11-20T03:20:12.984Z,98.7
2022-11-20T03:21:29.274Z,98.6
2022-11-20T03:22:45.571Z,98.7
2022-11-20T03:24:00.891Z,98.7
2022-11-20T03:25:17.187Z,98.6
2022-11-20T03:26:33.482Z,98.5
2022-11-20T03:27:49.774Z,98.2
2022-11-20T03:29:06.063Z,98
2022-11-20T03:30:22.373Z,97.9
2022-11-20T03:31:38.649Z,98
2022-11-20T03:32:54.960Z,98.1
2022-11-20T03:34:11.246Z,98.1
2022-11-20T03:35:27.551Z,98.2
2022-11-20T03:36:43.829Z,98
2022-11-20T03:38:00.129Z,98.2
2022-11-20T03:39:16.417Z,98.5
2022-11-20T03:40:31.733Z,98.5
2022-11-20T03:41:48.021Z,98.6
2022-11-20T03:43:04.328Z,98.6
2022-11-20T03:44:20.628Z,98.6
2022-11-20T03:45:36.914Z,98.7
2022-11-20T03:46:53.216Z,98.6
2022-11-20T03:48:08.525Z,98.5
2022-11-20T03:49:24.826Z,98.5
2022-11-20T03:50:41.117Z,98.3
2022-11-20T03:51:57.401Z,98.2
2022-11-20T03:53:13.707Z,98.2
2022-11-20T03:54:29.990Z,98.2
2022-11-20T03:55:46.294Z,98.2
2022-11-20T03:57:02.593Z,98.1
2022-11-20T03:58:18.885Z,98.1
2022-11-20T03:59:35.179Z,98.3
2022-11-20T04:00:51.467Z,98.3
2022-11-20T04:02:07.774Z,98.3
2022-11-20T04:03:24.071Z,98.1
2022-11-20T04:04:39.365Z,97.8
2022-11-20T04:05:55.659Z,97.7
2022-11-20T04:07:11.969Z,97.6
2022-11-20T04:08:28.258Z,97.8
2022-11-20T04:09:44.563Z,98.1
2022-11-20T04:11:00.839Z,98
2022-11-20T04:12:17.133Z,98
2022-11-20T04:13:33.438Z,97.8
2022-11-20T04:14:49.727Z,98.1
2022-11-20T04:16:06.029Z,98.1
2022-11-20T04:17:22.320Z,97.9
2022-11-20T04:18:38.623Z,97.9
2022-11-20T04:19:54.905Z,97.8
2022-11-20T04:21:10.222Z,97.8
2022-11-20T04:22:26.510Z,97.8
2022-11-20T04:23:42.815Z,97.9
2022-11-20T04:24:59.116Z,98
2022-11-20T04:26:15.396Z,98.1
2022-11-20T04:27:31.698Z,97.8
2022-11-20T04:28:47.982Z,97.5
2022-11-20T04:30:04.289Z,97.3
2022-11-20T04:31:20.576Z,97.1
2022-11-20T04:32:36.872Z,97.3
2022-11-20T04:33:53.170Z,97.3
2022-11-20T04:35:09.461Z,97.1
2022-11-20T04:36:25.754Z,96.9
2022-11-20T04:37:41.073Z,96.7
2022-11-20T04:38:57.369Z,96.7
2022-11-20T04:40:13.658Z,96.8
2022-11-20T04:41:29.947Z,96.8
2022-11-20T04:42:46.240Z,96.8
2022-11-20T04:44:02.535Z,97
2022-11-20T04:45:18.838Z,96.8
2022-11-20T04:46:35.133Z,96.7
2022-11-20T04:47:51.420Z,96.5
2022-11-20T04:49:07.727Z,96.5
2022-11-20T04:50:24.010Z,96.5
2022-11-20T04:51:40.307Z,96.5
2022-11-20T04:52:56.615Z,96.5
2022-11-20T04:54:11.908Z,96.5
2022-11-20T04:55:28.207Z,96.2
2022-11-20T04:56:44.498Z,96.2
2022-11-20T04:58:00.807Z,96.2
2022-11-20T04:59:17.084Z,96.3
2022-11-20T05:00:33.383Z,96.5
2022-11-20T05:01:49.675Z,96.7
2022-11-20T05:03:05.972Z,96.5
2022-11-20T05:04:22.268Z,96.5
2022-11-20T05:05:38.559Z,96.5
2022-11-20T05:06:54.860Z,96.3
2022-11-20T05:08:11.154Z,96.3
2022-11-20T05:09:27.442Z,96.4
2022-11-20T05:10:42.754Z,96.6
2022-11-20T05:11:59.056Z,96.6
2022-11-20T05:13:15.344Z,96.7
2022-11-20T05:14:31.645Z,96.9
2022-11-20T05:15:47.940Z,97.2
2022-11-20T05:17:04.227Z,97.2
2022-11-20T05:18:20.532Z,97.3
2022-11-20T05:19:36.828Z,97.3
2022-11-20T05:20:53.110Z,97.5
2022-11-20T05:22:09.409Z,97.6
2022-11-20T05:23:25.707Z,97.7
2022-11-20T05:24:42.006Z,97.6
2022-11-20T05:25:58.301Z,97.7
2022-11-20T05:27:13.601Z,97.7
2022-11-20T05:28:29.897Z,97.4
2022-11-20T05:29:46.203Z,97.4
2022-11-20T05:31:02.485Z,97.4
2022-11-20T05:32:18.799Z,97.5
2022-11-20T05:33:35.090Z,97.5
2022-11-20T05:34:51.382Z,97.5
2022-11-20T05:36:07.671Z,97.3
2022-11-20T05:37:23.957Z,97.2
2022-11-20T05:38:40.267Z,97
2022-11-20T05:39:56.548Z,96.7
2022-11-20T05:41:12.853Z,96.6
2022-11-20T05:42:29.148Z,96.6
2022-11-20T05:43:44.448Z,96.7
2022-11-20T05:45:00.759Z,96.9
2022-11-20T05:46:17.037Z,96.9
2022-11-20T05:47:33.332Z,97
2022-11-20T05:48:49.627Z,97
2022-11-20T05:50:05.929Z,97
2022-11-20T05:51:22.220Z,97.1
2022-11-20T05:52:38.510Z,97.1
2022-11-20T05:53:54.808Z,97.1
2022-11-20T05:55:11.103Z,97.1
2022-11-20T05:56:27.405Z,97.1
2022-11-20T05:57:43.690Z,97.1
2022-11-20T05:58:59.994Z,97.2
2022-11-20T06:00:15.302Z,97.2
2022-11-20T06:01:31.593Z,97.3
2022-11-20T06:02:47.900Z,97.4
2022-11-20T06:04:04.125Z,97.5
2022-11-20T06:05:20.431Z,97.5
2022-11-20T06:06:36.715Z,97.5
2022-11-20T06:07:52.975Z,97.5
2022-11-20T06:09:09.212Z,97.1
2022-11-20T06:10:25.513Z,96.6
2022-11-20T06:11:41.764Z,97
2022-11-20T06:12:57.997Z,97.1
2022-11-20T06:14:14.299Z,97.1
2022-11-20T06:15:30.550Z,97
2022-11-20T06:16:45.804Z,97
2022-11-20T06:18:02.039Z,97.1
2022-11-20T06:19:18.281Z,97.1
2022-11-20T06:20:34.533Z,96.8
2022-11-20T06:21:50.770Z,96.6
2022-11-20T06:23:07.005Z,96.6
2022-11-20T06:24:23.254Z,96.6
2022-11-20T06:25:39.487Z,96.8
2022-11-20T06:26:55.736Z,96.5
2022-11-20T06:28:11.975Z,96.4
2022-11-20T06:29:28.211Z,96.4
2022-11-20T06:30:44.450Z,96.4
2022-11-20T06:32:00.694Z,96.5
2022-11-20T06:33:15.964Z,96.4
2022-11-20T06:34:32.194Z,96.1
2022-11-20T06:35:48.426Z,96
2022-11-20T06:37:04.677Z,96.2
2022-11-20T06:38:20.915Z,96.2
2022-11-20T06:39:37.166Z,96.3
2022-11-20T06:40:53.400Z,96.3
2022-11-20T06:42:09.641Z,96.4
2022-11-20T06:43:25.888Z,96.4
2022-11-20T06:44:42.111Z,96.2
2022-11-20T06:45:58.354Z,96
2022-11-20T06:47:14.594Z,95.9
2022-11-20T06:48:30.843Z,95.8
2022-11-20T06:49:46.107Z,95.8
2022-11-20T06:51:02.340Z,95.6
2022-11-20T06:52:18.571Z,95.7
2022-11-20T06:53:34.822Z,95.7
2022-11-20T06:54:51.061Z,95.8
2022-11-20T06:56:07.296Z,96.1
2022-11-20T06:57:23.547Z,96.1
2022-11-20T06:58:39.779Z,96.2
2022-11-20T06:59:56.022Z,96
2022-11-20T07:01:12.261Z,96.2
2022-11-20T07:02:28.514Z,96.3
2022-11-20T07:03:44.740Z,96.2
2022-11-20T07:05:00.984Z,96.2
2022-11-20T07:06:16.246Z,96.3
2022-11-20T07:07:32.482Z,96.2
2022-11-20T07:08:48.731Z,96.3
2022-11-20T07:10:04.973Z,96.2
2022-11-20T07:11:21.211Z,96.3
2022-11-20T07:12:37.445Z,96.4
2022-11-20T07:13:53.696Z,96.4
2022-11-20T07:15:09.930Z,96.1
2022-11-20T07:16:26.176Z,95.9
2022-11-20T07:17:42.411Z,96
2022-11-20T07:18:58.643Z,96
2022-11-20T07:20:14.891Z,95.9
2022-11-20T07:21:31.136Z,96.2
2022-11-20T07:22:46.389Z,96.3
2022-11-20T07:24:02.622Z,96.3
2022-11-20T07:25:18.874Z,96.3
2022-11-20T07:26:35.112Z,96.4
2022-11-20T07:27:51.364Z,96.4
2022-11-20T07:29:07.593Z,96.4
2022-11-20T07:30:23.827Z,96.8
2022-11-20T07:31:40.080Z,96.5
2022-11-20T07:32:56.316Z,96.4
2022-11-20T07:34:12.549Z,96.3
2022-11-20T07:35:28.797Z,96.3
2022-11-20T07:36:45.037Z,96.5
2022-11-20T07:38:01.280Z,96.5
2022-11-20T07:39:16.531Z,96.7
2022-11-20T07:40:32.781Z,96.5
2022-11-20T07:41:49.030Z,96.5
2022-11-20T07:43:05.253Z,96.6
2022-11-20T07:44:21.503Z,96.5
2022-11-20T07:45:37.733Z,96.1
2022-11-20T07:46:53.976Z,95.9
2022-11-20T07:48:10.229Z,95.7
2022-11-20T07:49:26.469Z,95.7
2022-11-20T07:50:42.702Z,95.7
2022-11-20T07:51:58.945Z,95.7
2022-11-20T07:53:15.195Z,95.5
2022-11-20T07:54:31.418Z,95.4
2022-11-20T07:55:46.695Z,95.4
2022-11-20T07:57:02.916Z,95.3
2022-11-20T07:58:19.164Z,95.3
2022-11-20T07:59:35.401Z,95.3
2022-11-20T08:00:51.640Z,95.3
2022-11-20T08:02:07.886Z,95.4
2022-11-20T08:03:23.152Z,95.6
2022-11-20T08:04:39.386Z,95.6
2022-11-20T08:05:55.631Z,95.8
2022-11-20T08:07:11.864Z,96
2022-11-20T08:08:28.111Z,95.8
2022-11-20T08:09:44.346Z,95.5
2022-11-20T08:11:00.600Z,95.2
2022-11-20T08:12:16.830Z,94.9
2022-11-20T08:13:33.069Z,94.6
2022-11-20T08:14:49.314Z,94.9
2022-11-20T08:16:05.547Z,94.7
2022-11-20T08:17:21.799Z,94.3
2022-11-20T08:18:38.046Z,94.1
2022-11-20T08:19:53.289Z,94.3
2022-11-20T08:21:09.544Z,94.3
2022-11-20T08:22:25.771Z,94.3
2022-11-20T08:23:42.015Z,94
2022-11-20T08:24:58.251Z,94.3
2022-11-20T08:26:14.495Z,94
2022-11-20T08:27:30.738Z,94.1
2022-11-20T08:28:46.982Z,93.8
2022-11-20T08:30:03.220Z,94
2022-11-20T08:31:19.460Z,94.1
2022-11-20T08:32:35.694Z,93.6
2022-11-20T08:33:51.931Z,93.6
2022-11-20T08:35:08.173Z,93.5
2022-11-20T08:36:23.432Z,93.6
2022-11-20T08:37:39.670Z,93.1
2022-11-20T08:38:55.923Z,93.4
2022-11-20T08:40:12.150Z,93.7
2022-11-20T08:41:28.392Z,93.5
2022-11-20T08:42:44.628Z,93.5
2022-11-20T08:44:00.875Z,93.5
2022-11-20T08:45:17.126Z,93.7
2022-11-20T08:46:33.369Z,93.9
2022-11-20T08:47:49.592Z,93.8
2022-11-20T08:49:05.838Z,93.5
2022-11-20T08:50:22.083Z,93.5
2022-11-20T08:51:38.313Z,92.9
2022-11-20T08:52:53.575Z,92.2
2022-11-20T08:54:09.818Z,91.5
2022-11-20T08:55:26.048Z,91.7
2022-11-20T08:56:42.287Z,91.6
2022-11-20T08:57:58.543Z,91.4
2022-11-20T08:59:14.770Z,90.1
2022-11-20T09:00:31.024Z,90.3
2022-11-20T09:01:47.263Z,91.3
2022-11-20T09:03:03.496Z,91.1
2022-11-20T09:04:19.734Z,91
2022-11-20T09:05:35.974Z,91.7
2022-11-20T09:06:52.217Z,91.8
2022-11-20T09:08:08.454Z,91.5
2022-11-20T09:09:23.708Z,91.6
2022-11-20T09:10:39.962Z,91.7
2022-11-20T09:11:56.198Z,91.7
2022-11-20T09:13:12.436Z,91.4
2022-11-20T09:14:28.674Z,91.6
2022-11-20T09:15:44.923Z,91.8
2022-11-20T09:17:01.149Z,91.7
2022-11-20T09:18:17.392Z,91.7
2022-11-20T09:19:33.630Z,92
2022-11-20T09:20:49.873Z,91.8
2022-11-20T09:22:06.108Z,91.1
2022-11-20T09:23:22.352Z,90.9
2022-11-20T09:24:38.587Z,90.5
2022-11-20T09:25:53.848Z,90.5
2022-11-20T09:27:10.095Z,89.9
2022-11-20T09:28:26.331Z,88
2022-11-20T09:29:42.577Z,86.8
2022-11-20T09:30:58.824Z,85.4
2022-11-20T09:32:15.048Z,84.4
2022-11-20T09:33:31.291Z,83.8
2022-11-20T09:34:47.541Z,82
2022-11-20T09:36:03.777Z,81.3
2022-11-20T09:37:20.005Z,80.8
2022-11-20T09:38:36.248Z,81
2022-11-20T09:39:52.486Z,80
2022-11-20T09:41:08.732Z,79.1
2022-11-20T09:42:23.985Z,78
2022-11-20T09:43:40.228Z,77.3
2022-11-20T09:44:56.471Z,77.3
2022-11-20T09:46:12.706Z,76.3
2022-11-20T09:47:28.946Z,75.2
2022-11-20T09:48:45.186Z,75.4
2022-11-20T09:50:01.433Z,74.8
2022-11-20T09:51:17.672Z,77
2022-11-20T09:52:33.914Z,77.5
2022-11-20T09:53:50.140Z,77.9
2022-11-20T09:55:06.382Z,78.6
2022-11-20T09:56:22.627Z,78.1
2022-11-20T09:57:38.863Z,78
2022-11-20T09:58:54.116Z,78.5
2022-11-20T10:00:10.360Z,79.2
2022-11-20T10:01:26.610Z,79.4
2022-11-20T10:02:42.834Z,80.3
2022-11-20T10:03:59.092Z,81.8
2022-11-20T10:05:15.326Z,82
2022-11-20T10:06:31.554Z,81.8
2022-11-20T10:07:47.805Z,81.8
2022-11-20T10:09:04.034Z,82.2
2022-11-20T10:10:20.276Z,82.3
2022-11-20T10:11:36.532Z,82.4
2022-11-20T10:12:52.761Z,81.9
2022-11-20T10:14:08.997Z,80.7
2022-11-20T10:15:24.254Z,80.6
2022-11-20T10:16:40.495Z,81
2022-11-20T10:17:56.738Z,81.1
2022-11-20T10:19:12.982Z,81.4
2022-11-20T10:20:29.207Z,79.9
2022-11-20T10:21:45.457Z,79.4
2022-11-20T10:23:01.689Z,80.6
2022-11-20T10:24:17.939Z,82.3
2022-11-20T10:25:34.166Z,83.2
2022-11-20T10:26:50.407Z,84.6
2022-11-20T10:28:06.648Z,85.4
2022-11-20T10:29:22.891Z,85.8
2022-11-20T10:30:39.130Z,86.1
2022-11-20T10:31:54.382Z,84.5
2022-11-20T10:33:10.633Z,82.8
2022-11-20T10:34:26.875Z,83.2
2022-11-20T10:35:43.100Z,83
2022-11-20T10:36:59.338Z,83
2022-11-20T10:38:15.578Z,83.5
2022-11-20T10:39:31.822Z,82.1
2022-11-20T10:40:48.075Z,82.4
2022-11-20T10:42:04.297Z,82.8
2022-11-20T10:43:20.538Z,83.3
2022-11-20T10:44:36.786Z,84.9
2022-11-20T10:45:53.027Z,84.9
2022-11-20T10:47:09.270Z,84.8
2022-11-20T10:48:24.514Z,84.2
2022-11-20T10:49:40.765Z,83.5
2022-11-20T10:50:57.004Z,83.1
2022-11-20T10:52:13.241Z,81.6
2022-11-20T10:53:29.473Z,81
2022-11-20T10:54:45.731Z,80.9
2022-11-20T10:56:01.964Z,81.7
2022-11-20T10:57:18.204Z,83
2022-11-20T10:58:34.439Z,82
2022-11-20T10:59:50.672Z,80.9
2022-11-20T11:01:06.914Z,81.9
2022-11-20T11:02:23.159Z,84
2022-11-20T11:03:39.391Z,85.3
2022-11-20T11:04:54.651Z,86.3
2022-11-20T11:06:10.895Z,86.2
2022-11-20T11:07:27.129Z,87.4
2022-11-20T11:08:43.366Z,87.6
2022-11-20T11:09:59.603Z,87.8
2022-11-20T11:11:15.843Z,87.7
2022-11-20T11:12:32.082Z,87.9
2022-11-20T11:13:48.338Z,88
2022-11-20T11:15:04.568Z,87.3
2022-11-20T11:16:20.805Z,87.7
2022-11-20T11:17:37.047Z,88.3
2022-11-20T11:18:53.299Z,88.6
2022-11-20T11:20:09.538Z,88.1
2022-11-20T11:21:24.780Z,88
2022-11-20T11:22:41.023Z,88.1
2022-11-20T11:23:57.273Z,87.9
2022-11-20T11:26:29.736Z,88.6
2022-11-20T11:27:45.992Z,89
2022-11-20T11:29:02.230Z,88.9
2022-11-20T11:30:18.462Z,89.4
2022-11-20T11:31:34.696Z,89
2022-11-20T11:32:50.937Z,89.2
2022-11-20T11:34:07.183Z,89.1
2022-11-20T11:35:23.422Z,88.8
2022-11-20T11:36:39.656Z,88.8
2022-11-20T11:37:54.926Z,88.9
2022-11-20T11:39:11.161Z,88.7
2022-11-20T11:40:27.402Z,88.5
2022-11-20T11:41:43.635Z,88.4
2022-11-20T11:42:59.870Z,88.5
2022-11-20T11:44:16.116Z,88.8
2022-11-20T11:45:32.361Z,88.3
2022-11-20T11:46:48.592Z,87.5
2022-11-20T11:48:04.842Z,86.3
2022-11-20T11:49:21.072Z,85.6
2022-11-20T11:50:37.311Z,85.8
2022-11-20T11:51:53.568Z,85.7
2022-11-20T11:53:09.797Z,85.7
2022-11-20T11:54:25.046Z,86.3
2022-11-20T11:55:41.296Z,87.2
2022-11-20T11:56:57.540Z,87.8
2022-11-20T11:58:13.773Z,88.3
2022-11-20T11:59:30.007Z,88.4
2022-11-20T12:00:46.249Z,88.5
2022-11-20T12:02:02.489Z,87.8
2022-11-20T12:03:18.740Z,88.1
2022-11-20T12:04:34.975Z,87.6
2022-11-20T12:05:51.211Z,87.6
2022-11-20T12:07:07.447Z,87.8
2022-11-20T12:08:23.687Z,87
2022-11-20T12:09:39.931Z,86.5
2022-11-20T12:10:55.182Z,87.2
2022-11-20T12:12:11.427Z,87.7
2022-11-20T12:13:27.678Z,87.1
2022-11-20T12:14:43.901Z,87
2022-11-20T12:16:00.156Z,87.6
2022-11-20T12:17:16.379Z,88.3
2022-11-20T12:18:31.650Z,87.8
2022-11-20T12:19:47.889Z,87.2
2022-11-20T12:21:04.120Z,87.7
2022-11-20T12:22:20.373Z,87.7
2022-11-20T12:23:36.618Z,87.5
2022-11-20T12:24:52.852Z,87.4
2022-11-20T12:26:09.100Z,87.5
2022-11-20T12:27:25.333Z,87.7
2022-11-20T12:28:41.577Z,87.2
2022-11-20T12:29:57.815Z,87.2
2022-11-20T12:31:14.044Z,86.8
2022-11-20T12:32:30.280Z,87.1
2022-11-20T12:33:46.526Z,87.4
2022-11-20T12:35:02.761Z,87.6
2022-11-20T12:36:18.023Z,87.1
2022-11-20T12:37:34.267Z,86.6
2022-11-20T12:38:50.508Z,84.5
2022-11-20T12:40:06.734Z,81.7
2022-11-20T12:41:22.979Z,80.5
2022-11-20T12:42:39.229Z,79.7
2022-11-20T12:43:55.457Z,78.4
2022-11-20T12:45:11.699Z,77.5
2022-11-20T12:46:27.935Z,76.1
2022-11-20T12:47:44.175Z,75.5
2022-11-20T12:49:00.422Z,76.3
2022-11-20T12:50:16.655Z,76.8
2022-11-20T12:51:32.901Z,77.9
2022-11-20T12:52:48.151Z,78.6
2022-11-20T12:54:04.395Z,77.8
2022-11-20T12:55:20.639Z,76.4
2022-11-20T12:56:36.873Z,75.6
2022-11-20T12:57:53.109Z,74.9
2022-11-20T12:59:09.352Z,76.2
2022-11-20T13:00:25.604Z,76
2022-11-20T13:01:41.831Z,76.3
2022-11-20T13:02:58.074Z,75.7
2022-11-20T13:04:14.316Z,74.6
2022-11-20T13:05:30.560Z,74.5
2022-11-20T13:06:46.791Z,75.2
2022-11-20T13:08:03.036Z,74.7
2022-11-20T13:09:18.287Z,74
2022-11-20T13:10:34.523Z,74.4
2022-11-20T13:11:50.762Z,74
2022-11-20T13:13:07.009Z,74.6
2022-11-20T13:14:23.258Z,73.2
2022-11-20T13:15:39.489Z,72.9
2022-11-20T13:16:55.721Z,73.3
2022-11-20T13:18:11.963Z,73.9
2022-11-20T13:19:28.200Z,73.3
2022-11-20T13:20:44.440Z,73.2
2022-11-20T13:22:00.685Z,73.9
2022-11-20T13:23:16.925Z,74.6
2022-11-20T13:24:33.158Z,74.1
2022-11-20T13:25:48.424Z,74.2
2022-11-20T13:27:04.650Z,74
2022-11-20T13:28:20.892Z,72.9
2022-11-20T13:29:37.132Z,73.2
2022-11-20T13:30:53.376Z,71.9
2022-11-20T13:32:09.609Z,73.5
2022-11-20T13:33:25.855Z,74.3
2022-11-20T13:34:42.095Z,75.2
2022-11-20T13:35:58.345Z,73.8
2022-11-20T13:37:14.579Z,72.3
2022-11-20T13:38:30.808Z,73
2022-11-20T13:39:47.049Z,72.7
2022-11-20T13:41:03.284Z,73.3
2022-11-20T13:42:18.552Z,72.8
2022-11-20T13:43:34.785Z,72
2022-11-20T13:44:51.031Z,73
2022-11-20T13:46:07.271Z,74.3
2022-11-20T13:47:23.508Z,74.7
2022-11-20T13:48:39.739Z,74.6
2022-11-20T13:49:55.983Z,74.7
2022-11-20T13:51:12.222Z,74.2
2022-11-20T13:52:28.462Z,72.7
2022-11-20T13:53:44.696Z,71.9
2022-11-20T13:55:00.949Z,72.6
2022-11-20T13:56:17.184Z,72.2
2022-11-20T13:57:33.421Z,72.5
2022-11-20T13:58:48.672Z,70.9
2022-11-20T14:00:04.911Z,70.3
2022-11-20T14:01:21.156Z,71.4
2022-11-20T14:02:37.397Z,72.2
2022-11-20T14:03:53.628Z,72.1
2022-11-20T14:05:09.883Z,72
2022-11-20T14:06:26.109Z,72.2
2022-11-20T14:07:42.354Z,72
2022-11-20T14:08:58.593Z,71.6
2022-11-20T14:10:14.837Z,72.2
2022-11-20T14:11:31.076Z,71.3
2022-11-20T14:12:47.314Z,71.9
2022-11-20T14:14:03.551Z,73.1
2022-11-20T14:15:18.819Z,73.6
2022-11-20T14:16:35.040Z,73.8
2022-11-20T14:17:51.280Z,73.6
2022-11-20T14:19:07.519Z,73.8
2022-11-20T14:20:23.767Z,74.3
2022-11-20T14:21:40.011Z,73.8
2022-11-20T14:22:56.236Z,73.8
2022-11-20T14:24:12.484Z,74.5
2022-11-20T14:25:28.717Z,74.7
2022-11-20T14:26:44.964Z,75.8
2022-11-20T14:28:01.194Z,76.8
2022-11-20T14:29:17.441Z,77.6
2022-11-20T14:30:33.685Z,77.1
2022-11-20T14:31:48.951Z,77.4
2022-11-20T14:33:05.168Z,78.3
2022-11-20T14:34:21.416Z,78.3
2022-11-20T14:35:37.656Z,78.7
2022-11-20T14:36:53.902Z,79.8
2022-11-20T14:38:10.127Z,80.6
2022-11-20T14:39:26.382Z,81.2
2022-11-20T14:40:42.611Z,81.5
2022-11-20T14:41:58.852Z,81.8
2022-11-20T14:43:15.094Z,82.1
2022-11-20T14:44:31.340Z,82.1
2022-11-20T14:45:47.575Z,82.2
2022-11-20T14:47:03.811Z,82.9
2022-11-20T14:48:19.059Z,83.6
2022-11-20T14:49:35.316Z,84
2022-11-20T14:50:51.540Z,84.2
2022-11-20T14:52:07.778Z,84.4
2022-11-20T14:53:24.018Z,84.6
2022-11-20T14:54:40.261Z,85
2022-11-20T14:55:56.505Z,85.4
2022-11-20T14:57:12.737Z,85.6
2022-11-20T14:58:28.983Z,85.3
2022-11-20T14:59:45.218Z,85.4
2022-11-20T15:01:01.462Z,85.7
2022-11-20T15:02:17.704Z,85.7
2022-11-20T15:03:33.952Z,85.8
2022-11-20T15:04:49.193Z,86
2022-11-20T15:06:05.438Z,86.5
2022-11-20T15:07:21.684Z,86.5
2022-11-20T15:08:37.923Z,86.4
2022-11-20T15:09:54.163Z,86.5
2022-11-20T15:11:10.397Z,86.3
2022-11-20T15:12:26.630Z,86.3
2022-11-20T15:13:42.869Z,86.2
2022-11-20T15:14:59.115Z,86.1
2022-11-20T15:16:15.349Z,86.6
2022-11-20T15:17:31.592Z,87
2022-11-20T15:18:47.831Z,87.1
2022-11-20T15:20:04.073Z,87.5
2022-11-20T15:21:19.327Z,88.1
2022-11-20T15:22:35.578Z,88.4
2022-11-20T15:23:51.821Z,88.3
2022-11-20T15:25:08.051Z,88.2
2022-11-20T15:26:24.295Z,88.3
2022-11-20T15:27:40.530Z,88.5
2022-11-20T15:28:56.772Z,88.9
2022-11-20T15:30:13.005Z,88.8
2022-11-20T15:31:29.247Z,89
2022-11-20T15:32:45.489Z,89.3
2022-11-20T15:34:01.742Z,89.4
2022-11-20T15:35:17.964Z,89.4
2022-11-20T15:36:34.202Z,89.1
2022-11-20T15:37:49.462Z,88.5
2022-11-20T15:39:05.698Z,88.4
2022-11-20T15:40:21.939Z,88.5
2022-11-20T15:41:38.186Z,88.1
2022-11-20T15:42:54.418Z,87.3
2022-11-20T15:44:10.658Z,87.6
2022-11-20T15:45:26.905Z,88.2
2022-11-20T15:46:43.201Z,87.7
2022-11-20T15:47:59.493Z,87.6
2022-11-20T15:49:15.727Z,88.5
2022-11-20T15:50:31.979Z,88
2022-11-20T15:51:48.220Z,88.5
2022-11-20T15:53:04.506Z,89.6
2022-11-20T15:54:19.813Z,90.3
2022-11-20T15:55:36.113Z,90.8
2022-11-20T15:56:52.412Z,91
2022-11-20T15:58:08.700Z,90.3
2022-11-20T15:59:24.992Z,90.6
2022-11-20T16:00:41.291Z,91.1
2022-11-20T16:01:57.585Z,91.4
2022-11-20T16:03:13.873Z,91.4
2022-11-20T16:04:30.179Z,91.6
2022-11-20T16:05:46.464Z,91.5
2022-11-20T16:07:02.754Z,91.2
2022-11-20T16:08:19.058Z,90.8
2022-11-20T16:09:35.338Z,91.3
2022-11-20T16:10:50.649Z,91.4
2022-11-20T16:12:06.957Z,91.1
2022-11-20T16:13:23.240Z,90.6
2022-11-20T16:14:39.530Z,90.6
2022-11-20T16:15:55.828Z,90.2
2022-11-20T16:17:12.119Z,90
2022-11-20T16:18:28.414Z,89.8
2022-11-20T16:19:44.708Z,90.5
2022-11-20T16:21:01.009Z,91
2022-11-20T16:22:17.307Z,90.8
2022-11-20T16:23:33.594Z,90.4
2022-11-20T16:24:49.889Z,90.2
2022-11-20T16:26:06.174Z,90.3
2022-11-20T16:27:21.492Z,91
2022-11-20T16:28:37.790Z,91.3
2022-11-20T16:29:54.088Z,91.4
2022-11-20T16:31:10.385Z,91.5
2022-11-20T16:32:26.668Z,90.2
2022-11-20T16:33:41.984Z,90.4
2022-11-20T16:34:58.271Z,91.5
2022-11-20T16:36:14.570Z,91.9
2022-11-20T16:37:30.860Z,92.3
2022-11-20T16:38:47.168Z,92.7
2022-11-20T16:40:03.461Z,92.9
2022-11-20T16:41:19.754Z,92.8
2022-11-20T16:42:36.034Z,92.6
2022-11-20T16:43:52.337Z,92.5
2022-11-20T16:45:08.632Z,92.5
2022-11-20T16:46:24.923Z,92.6
2022-11-20T16:47:41.225Z,92.8
2022-11-20T16:48:57.505Z,93.1
2022-11-20T16:50:12.816Z,93.3
2022-11-20T16:51:29.107Z,92.6
2022-11-20T16:52:45.405Z,92.3
2022-11-20T16:54:01.698Z,91.9
2022-11-20T16:55:17.991Z,92.2
2022-11-20T16:56:34.283Z,92.1
2022-11-20T16:57:50.595Z,92.2
2022-11-20T16:59:06.873Z,92.5
2022-11-20T17:00:23.185Z,92.5
2022-11-20T17:01:39.462Z,92.7